Time;durP1;ratioP1;P1;durP2;ratioP2;P2;SDS_P1;SDS_P2;PMS_P1;PMS_P2;Temp;Humidity;BMP_temperature;BMP_pressure;BME280_temperature;BME280_humidity;BME280_pressure;Samples;Min_cycle;Max_cycle;Signal;HPM_P1;HPM_P2
2023/09/11 00:00:19;;;;;;;21.30;11.80;;;;;;;18.50;84.91;100732.28;105122;1267;102795;-83
2023/09/11 00:03:24;;;;;;;17.10;11.70;;;;;;;18.42;84.93;100731.10;105095;1273;101139;-83
2023/09/11 00:06:10;;;;;;;15.60;11.40;;;;;;;18.38;84.74;100728.48;105068;1270;99440;-83
2023/09/11 00:08:57;;;;;;;18.70;12.30;;;;;;;18.31;84.82;100724.68;105105;1267;99392;-83
2023/09/11 00:11:43;;;;;;;21.90;11.70;;;;;;;18.26;85.06;100721.19;105130;1272;99867;-83
2023/09/11 00:14:28;;;;;;;19.20;12.60;;;;;;;18.22;85.50;100721.05;105210;1272;103605;-84
2023/09/11 00:17:14;;;;;;;17.70;12.10;;;;;;;18.20;85.90;100720.61;105162;1271;99879;-84
2023/09/11 00:19:59;;;;;;;18.90;11.50;;;;;;;18.18;85.81;100716.77;105153;1267;99302;-83
2023/09/11 00:22:44;;;;;;;18.00;12.40;;;;;;;18.17;86.29;100717.13;105152;1273;99533;-82
2023/09/11 00:25:30;;;;;;;17.90;12.40;;;;;;;18.17;86.24;100711.44;105229;1267;99770;-83
2023/09/11 00:28:15;;;;;;;15.40;11.50;;;;;;;18.17;86.34;100706.94;105000;1272;104211;-83
2023/09/11 00:31:01;;;;;;;21.40;12.80;;;;;;;18.16;86.24;100702.61;105280;1270;100417;-83
2023/09/11 00:33:47;;;;;;;20.50;12.80;;;;;;;18.14;86.21;100702.45;105203;1273;99352;-83
2023/09/11 00:36:32;;;;;;;21.10;12.70;;;;;;;18.11;86.45;100702.48;105148;1267;99252;-83
2023/09/11 00:39:17;;;;;;;25.30;14.60;;;;;;;18.07;86.34;100698.39;105249;1267;99806;-82
2023/09/11 00:42:03;;;;;;;19.20;13.80;;;;;;;18.05;86.91;100697.34;105282;1273;103996;-83
2023/09/11 00:44:48;;;;;;;17.60;13.20;;;;;;;18.01;87.05;100693.23;105167;1267;124943;-83
2023/09/11 00:47:34;;;;;;;18.80;14.00;;;;;;;17.94;86.63;100688.56;105312;1267;99473;-83
2023/09/11 00:50:20;;;;;;;19.90;12.70;;;;;;;17.89;86.60;100690.91;105253;1267;99332;-83
2023/09/11 00:53:06;;;;;;;18.60;12.70;;;;;;;17.85;86.41;100689.30;105244;1267;99899;-83
2023/09/11 00:55:53;;;;;;;19.10;12.90;;;;;;;17.82;86.39;100689.27;105206;1267;102828;-83
2023/09/11 00:58:38;;;;;;;21.20;12.80;;;;;;;17.80;86.39;100688.89;105319;1267;101080;-83
2023/09/11 01:01:24;;;;;;;29.80;14.80;;;;;;;17.77;86.40;100686.43;105268;1270;99450;-83
2023/09/11 01:04:10;;;;;;;18.80;12.40;;;;;;;17.72;86.61;100686.52;105139;1267;99342;-83
2023/09/11 01:06:56;;;;;;;18.00;13.00;;;;;;;17.66;86.82;100682.25;105198;1268;99229;-82
2023/09/11 01:09:42;;;;;;;18.30;13.50;;;;;;;17.62;87.14;100681.66;105171;1267;102773;-83
2023/09/11 01:12:28;;;;;;;20.90;12.70;;;;;;;17.60;87.11;100682.90;105152;1267;100354;-83
2023/09/11 01:15:14;;;;;;;22.00;12.90;;;;;;;17.57;87.01;100683.30;104980;1267;99435;-84
2023/09/11 01:18:02;;;;;;;21.30;13.40;;;;;;;17.52;86.78;100681.32;104998;1275;99344;-82
2023/09/11 01:21:16;;;;;;;21.00;13.90;;;;;;;17.48;87.16;100680.92;105278;1273;99787;-82
2023/09/11 01:24:28;;;;;;;22.60;12.70;;;;;;;17.42;87.31;100682.16;105355;1272;104076;-82
2023/09/11 01:27:32;;;;;;;;;;;;;;;17.37;87.74;100681.23;105343;1272;99424;-82
2023/09/11 01:30:20;;;;;;;17.50;12.60;;;;;;;17.32;87.93;100677.83;105308;1267;99347;-81
2023/09/11 01:33:05;;;;;;;15.60;11.50;;;;;;;17.31;88.21;100673.90;105044;1269;99332;-81
2023/09/11 01:35:51;;;;;;;18.70;12.90;;;;;;;17.30;88.20;100674.74;105192;1273;99879;-82
2023/09/11 01:38:37;;;;;;;17.20;12.40;;;;;;;17.29;88.36;100673.20;105179;1267;102824;-82
2023/09/11 01:41:31;;;;;;;16.10;12.40;;;;;;;17.29;88.37;100672.00;105117;1271;99252;-83
2023/09/11 01:44:21;;;;;;;20.30;13.20;;;;;;;17.27;88.64;100670.20;105266;1268;99347;-82
2023/09/11 01:47:09;;;;;;;19.40;12.70;;;;;;;17.27;88.57;100667.33;105933;1268;99328;-83
2023/09/11 01:49:57;;;;;;;20.60;12.70;;;;;;;17.26;88.51;100667.70;105173;1267;99226;-83
2023/09/11 01:52:45;;;;;;;19.70;12.10;;;;;;;17.24;88.12;100663.52;105208;1267;102728;-82
2023/09/11 01:55:35;;;;;;;21.90;14.90;;;;;;;17.22;87.92;100660.93;105076;1267;99338;-83
2023/09/11 01:58:20;;;;;;;21.40;13.20;;;;;;;17.20;87.94;100662.00;105528;1270;99431;-82
2023/09/11 02:01:06;;;;;;;22.30;13.60;;;;;;;17.18;87.68;100658.04;105042;1273;99383;-83
2023/09/11 02:03:51;;;;;;;20.40;13.80;;;;;;;17.15;87.74;100658.40;105115;1272;99319;-82
2023/09/11 02:06:37;;;;;;;17.00;12.30;;;;;;;17.12;87.62;100658.10;105290;1268;102817;-82
2023/09/11 02:09:22;;;;;;;24.30;13.70;;;;;;;17.11;87.63;100658.53;105142;1272;100503;-83
2023/09/11 02:12:08;;;;;;;17.80;12.40;;;;;;;17.08;87.84;100658.33;105184;1267;99357;-83
2023/09/11 02:14:53;;;;;;;21.40;13.70;;;;;;;17.04;87.57;100658.17;105116;1267;99445;-83
2023/09/11 02:17:38;;;;;;;18.60;14.30;;;;;;;16.99;88.09;100659.67;105231;1267;99321;-82
2023/09/11 02:20:24;;;;;;;21.10;12.80;;;;;;;16.98;88.22;100659.20;105469;1272;103467;-83
2023/09/11 02:23:09;;;;;;;19.30;13.30;;;;;;;16.94;87.93;100662.58;105081;1268;99429;-83
2023/09/11 02:25:56;;;;;;;18.30;12.80;;;;;;;16.93;87.97;100663.05;105139;1271;99889;-83
2023/09/11 02:28:41;;;;;;;19.60;12.90;;;;;;;16.91;87.77;100660.02;105214;1268;99338;-82
2023/09/11 02:31:27;;;;;;;22.10;13.30;;;;;;;16.89;87.66;100660.30;105160;1268;99663;-82
2023/09/11 02:34:15;;;;;;;21.40;12.80;;;;;;;16.85;87.54;100661.05;105116;1267;103586;-82
2023/09/11 02:37:00;;;;;;;20.20;13.60;;;;;;;16.82;87.55;100661.34;104972;1267;101036;-84
2023/09/11 02:39:46;;;;;;;17.00;14.50;;;;;;;16.80;87.71;100663.98;105008;1277;99474;-84
2023/09/11 02:42:31;;;;;;;18.40;12.90;;;;;;;16.78;87.68;100662.44;105281;1273;99844;-82
2023/09/11 02:45:16;;;;;;;18.80;14.20;;;;;;;16.74;87.67;100659.90;105272;1267;99777;-82
2023/09/11 02:48:02;;;;;;;24.30;15.00;;;;;;;16.71;87.85;100661.21;105318;1267;102769;-83
2023/09/11 02:50:47;;;;;;;22.00;14.20;;;;;;;16.67;87.60;100663.92;105193;1273;100544;-83
2023/09/11 02:53:32;;;;;;;21.00;13.00;;;;;;;16.63;87.61;100663.36;105192;1270;99362;-84
2023/09/11 02:56:18;;;;;;;17.60;12.30;;;;;;;16.60;87.82;100659.84;105054;1273;99424;-83
2023/09/11 02:59:05;;;;;;;21.00;12.40;;;;;;;16.58;87.85;100658.16;105107;1274;99351;-84
2023/09/11 03:01:50;;;;;;;19.20;13.20;;;;;;;16.57;87.82;100659.38;106894;1267;104561;-83
2023/09/11 03:04:36;;;;;;;18.60;13.20;;;;;;;16.55;88.02;100656.98;105097;1267;99757;-83
2023/09/11 03:07:22;;;;;;;22.90;14.00;;;;;;;16.52;87.72;100653.98;105279;1272;99532;-84
2023/09/11 03:10:09;;;;;;;18.20;13.20;;;;;;;16.50;88.05;100649.21;105231;1268;99335;-84
2023/09/11 03:12:55;;;;;;;18.00;13.30;;;;;;;16.47;87.63;100647.42;105288;1267;99157;-83
2023/09/11 03:15:42;;;;;;;24.10;14.10;;;;;;;16.44;87.77;100648.13;105105;1267;102799;-84
2023/09/11 03:18:29;;;;;;;19.40;12.70;;;;;;;16.42;87.89;100645.91;105254;1273;99353;-84
2023/09/11 03:21:15;;;;;;;18.90;13.90;;;;;;;16.41;87.72;100645.12;105137;1273;99370;-84
2023/09/11 03:24:00;;;;;;;17.80;13.00;;;;;;;16.38;87.66;100643.57;105061;1268;99837;-83
2023/09/11 03:26:49;;;;;;;17.80;13.40;;;;;;;16.35;87.68;100642.52;105107;1267;99326;-84
2023/09/11 03:29:34;;;;;;;18.80;13.20;;;;;;;16.33;87.81;100640.59;105296;1273;104047;-84
2023/09/11 03:32:20;;;;;;;24.20;12.90;;;;;;;16.32;88.11;100640.77;105109;1275;100667;-83
2023/09/11 03:35:06;;;;;;;16.90;13.00;;;;;;;16.29;88.35;100638.59;105402;1271;99265;-84
2023/09/11 03:37:52;;;;;;;17.80;13.60;;;;;;;16.27;88.16;100634.20;105082;1273;99442;-83
2023/09/11 03:40:37;;;;;;;16.60;12.90;;;;;;;16.24;88.32;100632.81;105211;1272;100001;-84
2023/09/11 03:43:23;;;;;;;23.30;14.10;;;;;;;16.22;88.11;100634.10;105180;1272;102810;-84
2023/09/11 03:46:12;;;;;;;19.30;12.70;;;;;;;16.19;88.02;100631.36;105213;1267;99332;-83
2023/09/11 03:48:58;;;;;;;18.30;13.20;;;;;;;16.16;87.94;100634.59;105181;1267;99357;-83
2023/09/11 03:51:43;;;;;;;21.20;13.70;;;;;;;16.12;87.88;100633.80;105153;1267;100601;-82
2023/09/11 03:54:29;;;;;;;21.80;13.70;;;;;;;16.09;88.11;100629.24;105266;1267;99230;-83
2023/09/11 03:57:14;;;;;;;16.00;13.10;;;;;;;16.06;88.13;100628.02;105268;1267;102785;-82
2023/09/11 04:00:00;;;;;;;20.40;12.80;;;;;;;16.05;88.03;100627.36;104940;1267;99802;-83
2023/09/11 04:02:46;;;;;;;16.40;14.10;;;;;;;16.05;88.29;100627.00;105140;1276;99307;-83
2023/09/11 04:05:32;;;;;;;20.90;13.30;;;;;;;16.05;88.35;100627.04;104988;1268;99374;-83
2023/09/11 04:08:18;;;;;;;20.90;13.80;;;;;;;16.03;88.38;100629.09;105133;1267;99886;-84
2023/09/11 04:11:03;;;;;;;21.80;13.20;;;;;;;16.02;88.30;100625.63;105286;1272;103520;-84
2023/09/11 04:13:49;;;;;;;19.00;13.60;;;;;;;16.02;88.65;100626.35;105298;1273;99252;-83
2023/09/11 04:16:35;;;;;;;21.10;13.20;;;;;;;16.02;88.73;100622.16;105345;1267;99415;-83
2023/09/11 04:19:20;;;;;;;14.40;12.80;;;;;;;16.02;88.73;100621.49;105035;1273;99329;-82
2023/09/11 04:22:06;;;;;;;21.40;13.30;;;;;;;16.01;88.72;100620.96;105145;1268;99409;-83
2023/09/11 04:24:52;;;;;;;17.90;13.40;;;;;;;15.98;89.06;100622.36;105224;1271;104002;-83
2023/09/11 04:27:38;;;;;;;15.80;12.70;;;;;;;15.98;89.50;100621.70;105106;1273;100384;-83
2023/09/11 04:30:23;;;;;;;17.10;13.30;;;;;;;15.98;89.75;100621.65;105085;1276;100502;-83
2023/09/11 04:33:09;;;;;;;17.40;13.50;;;;;;;15.97;89.73;100622.90;105098;1267;99813;-82
2023/09/11 04:35:55;;;;;;;20.60;13.60;;;;;;;15.97;89.85;100621.33;104978;1269;99847;-83
2023/09/11 04:38:41;;;;;;;20.00;13.70;;;;;;;15.96;90.04;100620.63;104902;1270;103229;-83
2023/09/11 04:41:27;;;;;;;20.00;14.70;;;;;;;15.96;90.14;100617.84;105165;1270;100447;-82
2023/09/11 04:44:12;;;;;;;20.30;14.70;;;;;;;15.96;90.65;100614.94;105368;1267;99236;-84
2023/09/11 04:46:58;;;;;;;20.30;14.60;;;;;;;15.97;90.72;100614.52;105307;1272;99422;-84
2023/09/11 04:49:44;;;;;;;22.40;14.90;;;;;;;15.96;90.84;100612.61;105092;1276;100049;-83
2023/09/11 04:52:29;;;;;;;29.30;15.70;;;;;;;15.96;91.05;100611.48;105258;1267;102703;-84
2023/09/11 04:55:15;;;;;;;20.00;14.10;;;;;;;15.97;91.14;100610.70;104992;1275;100559;-82
2023/09/11 04:58:01;;;;;;;21.50;16.10;;;;;;;15.98;91.37;100613.09;105242;1267;99965;-83
2023/09/11 05:00:47;;;;;;;21.70;14.70;;;;;;;16.00;91.56;100614.54;105322;1273;99573;-81
2023/09/11 05:03:32;;;;;;;26.70;15.10;;;;;;;16.03;91.53;100611.92;105229;1271;99421;-81
2023/09/11 05:06:18;;;;;;;24.00;14.90;;;;;;;16.07;91.70;100612.11;105229;1267;102828;-83
2023/09/11 05:09:04;;;;;;;27.00;15.10;;;;;;;16.10;92.06;100611.08;105115;1267;100489;-82
2023/09/11 05:11:50;;;;;;;20.50;14.60;;;;;;;16.12;91.98;100607.84;105127;1268;99331;-83
2023/09/11 05:14:35;;;;;;;17.00;13.70;;;;;;;16.16;91.98;100609.68;105007;1267;99326;-84
2023/09/11 05:17:21;;;;;;;25.90;14.50;;;;;;;16.19;92.24;100608.70;105184;1267;99451;-82
2023/09/11 05:20:08;;;;;;;22.20;15.10;;;;;;;16.23;92.55;100608.33;105130;1268;103952;-84
2023/09/11 05:22:54;;;;;;;19.20;13.60;;;;;;;16.27;92.51;100607.83;105241;1268;100901;-82
2023/09/11 05:25:39;;;;;;;25.20;14.80;;;;;;;16.32;92.48;100607.45;105378;1267;99434;-82
2023/09/11 05:28:24;;;;;;;25.40;16.10;;;;;;;16.38;93.01;100605.67;105134;1273;99378;-84
2023/09/11 05:31:10;;;;;;;26.40;16.10;;;;;;;16.45;93.94;100608.80;105285;1273;99768;-82
2023/09/11 05:33:55;;;;;;;22.00;15.40;;;;;;;16.53;94.71;100608.41;105101;1267;103525;-82
2023/09/11 05:36:41;;;;;;;29.60;15.50;;;;;;;16.60;95.16;100609.17;105167;1267;99332;-82
2023/09/11 05:39:26;;;;;;;24.00;16.80;;;;;;;16.67;95.25;100612.91;105106;1273;99341;-82
2023/09/11 05:42:12;;;;;;;21.40;15.40;;;;;;;16.75;95.72;100605.88;105227;1273;99355;-83
2023/09/11 05:44:57;;;;;;;20.90;16.40;;;;;;;16.82;96.18;100606.73;105348;1273;99772;-84
2023/09/11 05:47:43;;;;;;;26.80;17.30;;;;;;;16.89;96.63;100606.73;104958;1270;102795;-82
2023/09/11 05:50:28;;;;;;;24.20;17.20;;;;;;;16.97;96.86;100610.79;105186;1267;100027;-82
2023/09/11 05:53:14;;;;;;;30.00;18.10;;;;;;;17.06;97.11;100608.98;105362;1267;99317;-83
2023/09/11 05:56:00;;;;;;;26.10;19.00;;;;;;;17.13;97.64;100609.99;105171;1273;99317;-82
2023/09/11 05:58:45;;;;;;;33.20;19.50;;;;;;;17.21;97.81;100610.93;105032;1270;99418;-82
2023/09/11 06:01:30;;;;;;;32.70;20.90;;;;;;;17.30;98.01;100612.30;105368;1267;102848;-82
2023/09/11 06:04:16;;;;;;;31.80;22.00;;;;;;;17.39;98.32;100613.13;105204;1272;100644;-84
2023/09/11 06:07:03;;;;;;;29.80;21.90;;;;;;;17.48;98.49;100612.89;105773;1267;99766;-89
2023/09/11 06:09:49;;;;;;;27.10;19.80;;;;;;;17.57;98.72;100614.63;105833;1269;98014;-86
2023/09/11 06:12:35;;;;;;;28.50;19.40;;;;;;;17.67;99.07;100616.77;105505;1276;100919;-88
2023/09/11 06:15:22;;;;;;;30.00;20.60;;;;;;;17.76;98.98;100613.30;105890;1274;102773;-91
2023/09/11 06:18:07;;;;;;;23.80;18.90;;;;;;;17.85;99.19;100613.36;106163;1272;99951;-92
2023/09/11 06:21:00;;;;;;;28.60;18.60;;;;;;;17.94;99.45;100615.28;105526;1268;99345;-91
2023/09/11 06:23:46;;;;;;;24.90;18.50;;;;;;;18.04;99.55;100616.66;105459;1270;99332;-87
2023/09/11 06:26:32;;;;;;;27.20;18.80;;;;;;;18.14;99.76;100610.06;105590;1267;99338;-85
2023/09/11 06:29:19;;;;;;;22.90;17.30;;;;;;;18.23;99.85;100609.73;105430;1267;102785;-93
2023/09/11 06:32:05;;;;;;;24.00;17.80;;;;;;;18.33;99.78;100603.61;105547;1268;99284;-83
2023/09/11 06:34:50;;;;;;;27.40;17.80;;;;;;;18.43;99.79;100603.11;105593;1272;99363;-84
2023/09/11 06:37:37;;;;;;;27.00;17.20;;;;;;;18.54;99.82;100603.52;105230;1269;99518;-85
2023/09/11 06:40:23;;;;;;;25.40;17.00;;;;;;;18.64;99.75;100607.52;105582;1267;99430;-84
2023/09/11 06:43:08;;;;;;;23.20;16.90;;;;;;;18.73;99.51;100611.68;105348;1270;102819;-83
2023/09/11 06:45:54;;;;;;;23.50;17.40;;;;;;;18.83;99.42;100611.84;105153;1273;101342;-83
2023/09/11 06:48:40;;;;;;;25.40;16.90;;;;;;;18.93;99.34;100608.08;105201;1276;99905;-83
2023/09/11 06:51:25;;;;;;;25.20;16.80;;;;;;;19.04;99.54;100610.69;105360;1268;99275;-83
2023/09/11 06:54:12;;;;;;;26.90;17.10;;;;;;;19.14;99.44;100609.64;105237;1268;99854;-83
2023/09/11 06:56:57;;;;;;;20.70;15.30;;;;;;;19.24;99.33;100611.30;105406;1272;104334;-84
2023/09/11 06:59:43;;;;;;;23.50;16.20;;;;;;;19.34;99.19;100611.90;105183;1272;99885;-85
2023/09/11 07:02:29;;;;;;;18.70;14.90;;;;;;;19.43;98.04;100611.33;105402;1273;99453;-83
2023/09/11 07:05:20;;;;;;;19.50;15.10;;;;;;;19.51;97.59;100609.27;105352;1268;99355;-85
2023/09/11 07:08:06;;;;;;;20.50;14.90;;;;;;;19.61;96.88;100613.48;105310;1273;99329;-85
2023/09/11 07:10:51;;;;;;;19.00;13.60;;;;;;;19.72;96.38;100615.18;105262;1274;111446;-86
2023/09/11 07:13:38;;;;;;;23.00;15.00;;;;;;;19.80;95.97;100615.01;105327;1267;99415;-84
2023/09/11 07:16:24;;;;;;;17.60;13.90;;;;;;;19.90;95.72;100614.64;105085;1269;99332;-85
2023/09/11 07:19:09;;;;;;;17.10;14.40;;;;;;;20.02;95.67;100614.81;105248;1269;99364;-86
2023/09/11 07:21:55;;;;;;;21.00;15.30;;;;;;;20.13;95.61;100612.63;105426;1268;99332;-86
2023/09/11 07:24:41;;;;;;;18.90;14.10;;;;;;;20.23;95.05;100611.84;105301;1274;102755;-86
2023/09/11 07:27:33;;;;;;;17.50;14.60;;;;;;;20.31;94.47;100608.16;105236;1267;99824;-86
2023/09/11 07:30:19;;;;;;;19.40;13.60;;;;;;;20.41;94.29;100611.89;105641;1276;99397;-86
2023/09/11 07:33:05;;;;;;;22.00;14.90;;;;;;;20.50;94.12;100607.73;105162;1276;99345;-86
2023/09/11 07:35:51;;;;;;;19.70;13.40;;;;;;;20.58;93.88;100607.79;105351;1267;99258;-86
2023/09/11 07:38:44;;;;;;;21.50;14.50;;;;;;;20.67;93.14;100607.46;105162;1267;104969;-86
2023/09/11 07:41:29;;;;;;;22.10;15.40;;;;;;;20.76;93.10;100604.95;105283;1273;99760;-87
2023/09/11 07:44:15;;;;;;;16.70;14.00;;;;;;;20.84;92.42;100603.55;105318;1267;98909;-86
2023/09/11 07:47:01;;;;;;;18.10;13.20;;;;;;;20.94;91.89;100597.17;105140;1276;99336;-85
2023/09/11 07:49:47;;;;;;;18.40;13.30;;;;;;;21.03;91.45;100597.10;105052;1267;99817;-85
2023/09/11 07:52:35;;;;;;;16.20;13.40;;;;;;;21.12;91.33;100597.64;105303;1272;102817;-86
2023/09/11 07:55:20;;;;;;;19.20;14.10;;;;;;;21.21;91.12;100597.20;105181;1273;99326;-86
2023/09/11 07:58:09;;;;;;;16.00;12.50;;;;;;;21.29;90.07;100599.36;105040;1270;99214;-85
2023/09/11 08:00:55;;;;;;;26.20;15.20;;;;;;;21.38;89.46;100595.02;105140;1273;99208;-86
2023/09/11 08:03:41;;;;;;;18.90;12.80;;;;;;;21.47;89.62;100598.77;105236;1268;99587;-86
2023/09/11 08:06:27;;;;;;;19.30;13.70;;;;;;;21.58;89.70;100597.50;105300;1273;102881;-85
2023/09/11 08:09:13;;;;;;;17.00;12.80;;;;;;;21.66;88.85;100593.92;105459;1267;99361;-78
2023/09/11 08:12:00;;;;;;;17.20;12.50;;;;;;;21.74;88.79;100591.70;105214;1270;99317;-79
2023/09/11 08:14:45;;;;;;;13.70;11.70;;;;;;;21.85;88.73;100593.84;105367;1273;99367;-80
2023/09/11 08:17:31;;;;;;;20.70;12.90;;;;;;;21.93;87.73;100592.33;105378;1273;99366;-80
2023/09/11 08:20:17;;;;;;;16.00;11.80;;;;;;;22.01;87.65;100592.17;105822;1270;102872;-79
2023/09/11 08:23:03;;;;;;;17.90;12.20;;;;;;;22.10;87.43;100597.15;105553;1273;99368;-85
2023/09/11 08:25:48;;;;;;;17.30;12.40;;;;;;;22.18;86.59;100594.96;105330;1277;99409;-84
2023/09/11 08:28:34;;;;;;;17.40;11.50;;;;;;;22.27;86.59;100594.70;105199;1268;99332;-86
2023/09/11 08:31:20;;;;;;;26.30;12.00;;;;;;;22.36;85.73;100590.33;105155;1274;99343;-85
2023/09/11 08:34:06;;;;;;;16.70;11.90;;;;;;;22.44;85.56;100587.32;105046;1276;102905;-86
2023/09/11 08:36:52;;;;;;;16.80;11.00;;;;;;;22.51;85.02;100586.27;105274;1273;99590;-86
2023/09/11 08:39:38;;;;;;;14.80;11.30;;;;;;;22.60;85.28;100584.98;105151;1268;100636;-85
2023/09/11 08:42:24;;;;;;;13.30;11.10;;;;;;;22.71;84.77;100588.58;105339;1274;99365;-85
2023/09/11 08:45:10;;;;;;;17.40;11.30;;;;;;;22.79;84.60;100586.32;105336;1273;99230;-86
2023/09/11 08:47:58;;;;;;;18.40;10.80;;;;;;;22.88;84.31;100584.23;105288;1268;103390;-85
2023/09/11 08:50:50;;;;;;;17.00;11.20;;;;;;;22.96;83.48;100582.18;104986;1273;99310;-85
2023/09/11 08:53:40;;;;;;;15.40;11.30;;;;;;;23.06;83.20;100583.56;105299;1267;99351;-85
2023/09/11 08:56:26;;;;;;;15.30;11.10;;;;;;;23.15;82.86;100580.21;105179;1273;99357;-85
2023/09/11 08:59:15;;;;;;;13.90;11.70;;;;;;;23.24;82.14;100578.36;105145;1276;99942;-85
2023/09/11 09:02:03;;;;;;;13.70;10.40;;;;;;;23.32;81.75;100579.38;105075;1273;102754;-84
2023/09/11 09:04:48;;;;;;;15.70;10.80;;;;;;;23.41;81.36;100584.61;105423;1273;99361;-84
2023/09/11 09:07:34;;;;;;;16.50;11.00;;;;;;;23.51;81.14;100583.41;105777;1273;99341;-85
2023/09/11 09:10:21;;;;;;;13.90;9.90;;;;;;;23.60;81.31;100580.97;105357;1273;99436;-85
2023/09/11 09:13:09;;;;;;;12.60;10.40;;;;;;;23.69;81.00;100580.19;105047;1274;99330;-86
2023/09/11 09:15:54;;;;;;;13.00;10.80;;;;;;;23.78;80.62;100582.05;105072;1276;102807;-85
2023/09/11 09:18:50;;;;;;;16.40;10.40;;;;;;;23.85;79.76;100580.41;105241;1270;99853;-86
2023/09/11 09:21:35;;;;;;;11.30;9.90;;;;;;;23.93;79.75;100575.70;105289;1267;99274;-85
2023/09/11 09:24:20;;;;;;;10.50;9.40;;;;;;;24.01;79.67;100572.14;105206;1276;99431;-86
2023/09/11 09:27:07;;;;;;;11.90;9.40;;;;;;;24.12;79.23;100569.42;105643;1267;99397;-82
2023/09/11 09:29:52;;;;;;;13.00;10.10;;;;;;;24.22;78.63;100569.23;105881;1267;102727;-85
2023/09/11 09:32:38;;;;;;;12.00;10.40;;;;;;;24.31;77.73;100572.17;105530;1271;99887;-83
2023/09/11 09:35:43;;;;;;;12.30;8.80;;;;;;;24.40;77.27;100569.02;105684;1267;106460;-85
2023/09/11 09:38:31;;;;;;;12.40;9.80;;;;;;;24.47;76.87;100565.06;107404;1269;96929;-84
2023/09/11 09:41:20;;;;;;;12.80;10.20;;;;;;;24.55;76.46;100562.67;107562;1270;97396;-83
2023/09/11 09:44:05;;;;;;;12.40;8.90;;;;;;;24.63;76.02;100558.33;107470;1269;103982;-85
2023/09/11 09:46:50;;;;;;;16.60;11.10;;;;;;;24.71;75.43;100555.05;105927;1269;99363;-85
2023/09/11 09:49:51;;;;;;;10.90;9.60;;;;;;;24.78;74.60;100554.02;105245;1267;99338;-85
2023/09/11 09:52:36;;;;;;;9.80;8.80;;;;;;;24.86;75.10;100551.72;105107;1272;99431;-85
2023/09/11 09:55:22;;;;;;;14.90;9.40;;;;;;;24.95;75.21;100550.02;104972;1276;99399;-86
2023/09/11 09:58:07;;;;;;;10.80;9.30;;;;;;;25.04;74.27;100551.52;105195;1271;104101;-85
2023/09/11 10:01:08;;;;;;;11.00;9.50;;;;;;;25.10;73.82;100548.58;105209;1280;99749;-84
2023/09/11 10:03:54;;;;;;;14.00;10.00;;;;;;;25.14;73.32;100551.55;105319;1273;99435;-84
2023/09/11 10:06:40;;;;;;;16.60;9.90;;;;;;;25.18;72.82;100547.86;105255;1267;99425;-84
2023/09/11 10:09:25;;;;;;;11.30;9.80;;;;;;;25.27;73.06;100547.65;105125;1276;99843;-85
2023/09/11 10:12:12;;;;;;;10.50;9.30;;;;;;;25.34;71.73;100546.22;105247;1267;103580;-85
2023/09/11 10:14:57;;;;;;;13.90;8.60;;;;;;;25.41;71.81;100544.42;105357;1277;99255;-84
2023/09/11 10:17:43;;;;;;;11.90;9.20;;;;;;;25.47;71.90;100538.48;105165;1283;99268;-86
2023/09/11 10:20:29;;;;;;;10.50;9.00;;;;;;;25.55;71.18;100534.90;104995;1276;99356;-85
2023/09/11 10:23:15;;;;;;;9.80;8.60;;;;;;;25.62;71.18;100531.73;105534;1273;99949;-85
2023/09/11 10:26:05;;;;;;;9.60;8.50;;;;;;;25.70;70.52;100531.20;105177;1272;102816;-85
2023/09/11 10:28:54;;;;;;;11.10;9.30;;;;;;;25.76;69.78;100528.09;105085;1270;100734;-85
2023/09/11 10:32:09;;;;;;;12.50;9.20;;;;;;;25.80;69.22;100527.93;105418;1273;99449;-86
2023/09/11 10:34:55;;;;;;;9.20;8.10;;;;;;;25.88;68.08;100523.64;105058;1276;100229;-84
2023/09/11 10:37:42;;;;;;;12.10;7.70;;;;;;;25.93;67.65;100519.80;105001;1267;99781;-84
2023/09/11 10:40:31;;;;;;;12.30;8.60;;;;;;;26.01;67.67;100518.34;105329;1267;103835;-85
2023/09/11 10:43:17;;;;;;;13.50;8.50;;;;;;;26.07;66.12;100519.39;105121;1267;100505;-85
2023/09/11 10:46:22;;;;;;;12.90;8.30;;;;;;;26.09;65.50;100516.73;104922;1274;101019;-84
2023/09/11 10:49:19;;;;;;;9.50;8.50;;;;;;;26.13;65.65;100511.93;105107;1285;99400;-84
2023/09/11 10:52:08;;;;;;;10.60;8.20;;;;;;;26.18;64.86;100508.75;105016;1277;99950;-84
2023/09/11 10:54:54;;;;;;;9.10;8.20;;;;;;;26.22;64.23;100504.58;105032;1285;102892;-85
2023/09/11 10:57:39;;;;;;;9.40;8.10;;;;;;;26.29;64.54;100501.86;105014;1284;99281;-83
2023/09/11 11:00:26;;;;;;;11.70;7.80;;;;;;;26.36;64.32;100500.73;105058;1273;106239;-85
2023/09/11 11:03:15;;;;;;;10.80;7.50;;;;;;;26.43;64.51;100498.02;105382;1277;99265;-85
2023/09/11 11:06:02;;;;;;;9.90;7.60;;;;;;;26.49;63.90;100498.20;105037;1273;100954;-85
2023/09/11 11:08:48;;;;;;;10.00;7.60;;;;;;;26.57;63.76;100501.13;105029;1280;104117;-85
2023/09/11 11:11:34;;;;;;;8.90;7.30;;;;;;;26.60;62.03;100499.77;104978;1277;109500;-84
2023/09/11 11:14:22;;;;;;;9.00;8.10;;;;;;;26.61;61.76;100494.80;105209;1273;99311;-84
2023/09/11 11:17:10;;;;;;;12.00;9.00;;;;;;;26.62;61.51;100495.61;105121;1270;99399;-83
2023/09/11 11:20:00;;;;;;;11.00;7.80;;;;;;;26.69;60.74;100492.17;105167;1273;99799;-84
2023/09/11 11:22:46;;;;;;;11.50;8.70;;;;;;;26.74;60.77;100488.34;105102;1267;105011;-85
2023/09/11 11:25:31;;;;;;;11.10;7.90;;;;;;;26.80;61.18;100486.13;105012;1270;100492;-84
2023/09/11 11:28:21;;;;;;;9.70;7.80;;;;;;;26.88;60.90;100484.20;105204;1272;99324;-85
2023/09/11 11:31:09;;;;;;;8.50;7.10;;;;;;;26.96;60.32;100479.23;105195;1268;100708;-84
2023/09/11 11:33:57;;;;;;;9.80;7.40;;;;;;;27.04;59.80;100478.50;105382;1270;99314;-84
2023/09/11 11:36:44;;;;;;;10.00;8.10;;;;;;;27.13;59.76;100483.81;105280;1270;103492;-83
2023/09/11 11:39:38;;;;;;;8.70;7.20;;;;;;;27.18;59.73;100482.57;105158;1267;99329;-84
2023/09/11 11:42:23;;;;;;;12.30;7.60;;;;;;;27.24;59.59;100481.22;105348;1267;99364;-85
2023/09/11 11:45:09;;;;;;;9.70;7.70;;;;;;;27.31;59.67;100477.70;104904;1270;99330;-84
2023/09/11 11:47:55;;;;;;;8.30;7.40;;;;;;;27.37;59.64;100472.99;105169;1271;99808;-86
2023/09/11 11:50:44;;;;;;;8.80;7.40;;;;;;;27.43;58.60;100472.12;105232;1273;102862;-84
2023/09/11 11:53:33;;;;;;;11.00;8.30;;;;;;;27.48;58.00;100479.73;105651;1270;100016;-82
2023/09/11 11:56:19;;;;;;;9.00;7.60;;;;;;;27.49;57.37;100477.36;105884;1267;99158;-84
2023/09/11 11:59:05;;;;;;;9.30;8.10;;;;;;;27.49;57.35;100479.50;105810;1270;100088;-85
2023/09/11 12:01:51;;;;;;;10.80;7.40;;;;;;;27.50;57.14;100477.02;105883;1267;98427;-81
2023/09/11 12:04:42;;;;;;;9.00;8.10;;;;;;;27.52;57.26;100475.10;105717;1273;103970;-85
2023/09/11 12:07:27;;;;;;;8.50;7.70;;;;;;;27.55;56.83;100472.75;105311;1267;100372;-84
2023/09/11 12:10:13;;;;;;;9.10;8.00;;;;;;;27.59;56.93;100475.65;105645;1270;99175;-85
2023/09/11 12:12:59;;;;;;;9.50;8.10;;;;;;;27.61;56.75;100478.86;105360;1273;99405;-84
2023/09/11 12:15:56;;;;;;;9.20;7.40;;;;;;;27.64;56.34;100476.28;105767;1267;99236;-80
2023/09/11 12:18:42;;;;;;;9.50;8.40;;;;;;;27.68;56.44;100476.04;105848;1270;104082;-83
2023/09/11 12:21:30;;;;;;;9.00;8.10;;;;;;;27.71;56.65;100474.98;105577;1267;99283;-82
2023/09/11 12:24:15;;;;;;;9.00;7.20;;;;;;;27.71;56.36;100476.48;105487;1267;99307;-83
2023/09/11 12:27:01;;;;;;;12.30;8.10;;;;;;;27.69;56.25;100473.38;105449;1267;99866;-82
2023/09/11 12:29:51;;;;;;;9.10;8.10;;;;;;;27.71;56.47;100474.16;105545;1270;99344;-82